Airfield :
LOGIN :

Register | Disclaimer

   EN    FR    IT 

 










Legend :    VFR   Marginal VFR   IFR   Intensive IFR   Very Intensive IFR
Visi :
Ceiling :
>= 8 km
>= 3000ft
5 to 8 km
1000 to 3000 ft
1500m to 5 km
500 to 1000 ft
800 to 1500m
200 to 500 ft
< 800m
< 200 ft
Symbols :   Thunderstorms  Fog  Heavy snow  Heavy precipitations  Wind > 20 kt
SIGMETs :     Misc.  Thunderstorms  Icing  Turbulence  Mountain Waves  Volcanic Ashes






- Airport Elevation : 584 ft


LFPV - Villacoublay Vélizy

CURRENT METAR :
  • 091100Z AUTO 23007KT 200V260 CAVOK 05/02 Q1007 NOSIG

EXPIRED METARs :
  • 091030Z AUTO 24008KT CAVOK 04/01 Q1007 NOSIG
  • 091000Z AUTO 25009KT CAVOK 04/01 Q1008 NOSIG
  • 090930Z AUTO 24007KT CAVOK 03/01 Q1008 NOSIG
  • 090900Z AUTO 23007KT CAVOK 02/00 Q1007 NOSIG
  • 090830Z AUTO 22006KT CAVOK 01/00 Q1007 NOSIG

TAF TAF LFPV
Valid from the 09 at 09:00 until the 10 at 09:00 UTC


090800Z 0909/1009 22008KT CAVOK TX06/0914Z TN02/0909Z
TEMPO 0915/0918 BKN010
BECMG 0918/0920 OVC008
TEMPO 0920/1004 18015G30KT 3000 RA BKN003
BECMG 1004/1006 29010KT BKN030
TEMPO 1004/1009 30015G25KT



MET'MAP, your aeronautical weather chart ! - Copyright ORBIFLY December 2007 - Disclaimer

ORBIFLY MET'MAP TEAM :

Programming & Development : Alexandra Zaïnal
Concept & original design : Baudouin d'Aumeries
Assistance for programming : Marc-Olivier Méhu
Technical & hardware support : Manuel Goepfert

Contact : metmap@orbifly.com




SOURCES & CREDITS :

   NOAA